Main page
METAR-TAF:

METAR-TAF

Airports :

Kuwait International Airport

Kuwait City, Kuwait

latitude: 29-13N, longitude: 047-59E, elevation: 55 m

Current weather observation

The report was made 15 minutes ago, at 18:00 UTC
Wind 13 kt from the North/Northwest
Temperature 39°C
Humidity 10%
Pressure 999 hPa
Visibility 10 km or more
no clouds below 1500 m and no cumulonimbus

METAR: OKBK 171800Z 33013KT CAVOK 39/02 Q0999 NOSIG

Time: 21:15 (18:15 UTC)

Forecast

The report was made 1 hour and 30 minutes ago, at 16:45 UTC
Forecast valid from 17 at 18 UTC to 18 at 24 UTC
Wind 12 kt from the Northwest
Visibility: 8000 m
Clear sky

TAF: OKBK 171645Z 1718/1824 31012KT 8000 SKC

Weather observations and forecasts of more than 4000 airports (METAR and TAF reports).

The available stations are represented by yellow and red dots on the map.

Hover mouse over dot to see the name of the station.

Then click to see weather observations and forecasts.

To change the map : click on the green buttons with a black cross to zoom in, on the green button with a dash to zoom out, or on the green arrows for adjacent maps.


METAR-TAF: